Sheboygan, WI

10:08 PM CDT on August 27, 2016 (GMT -0500)
Town of Sheboygan NW | | Change Station

Elev 673 ft 43.78 °N, 87.77 °W | Updated 13 seconds ago

Fog
Fog
64.2 °F
Feels Like 64.2 °F
N
0.0
Wind Variable Wind from NE
Gusts 4.0 mph

Today
High -- | Low -- °F
--% Chance of Precip.
Yesterday
High -- | Low -- °F
Precip. -- in
Pressure 30.07 in
Visibility 0.5 miles
Clouds
Dew Point 63 °F
Humidity 97%
Rainfall 0.70 in
Snow Depth Not available.
6:09 AM 7:34 PM
Waning Crescent, 19% visible
METAR KSBM 280253Z AUTO 00000KT 1/2SM FG VV003 18/17 A3007 RMK AO2 SLP182 T01830172 53008
Pressure 30.07 in
Visibility 0.5 miles
Clouds
Dew Point 63 °F
Humidity 97%
Rainfall 0.70 in
Snow Depth Not available.
6:09 AM 7:34 PM
Waning Crescent, 19% visible
METAR KSBM 280253Z AUTO 00000KT 1/2SM FG VV003 18/17 A3007 RMK AO2 SLP182 T01830172 53008

10-Day Weather Forecast

Almanac

Astronomy

Aug. 27, 2016 Rise Set
Actual Time
Civil Twilight
Nautical Twilight
Astronomical Twilight
Moon
Length of Visible Light
Length of Day
Tomorrow will be .
, % of the Moon is Illuminated

Today's Extremes

State Highs State Lows

Community

WunderPhotos

Upload Photos

1,935,511 photos uploaded!

WunderBlog® & News

Nearby

Air Quality

  Air Quality AQ Index Pollutant
Not available.

Snow Depth

Station Depth Elevation

Earthquake Activity

City Distance Mag. Time & Date
Minimum magnitude displayed is 2.5.

Coastal Water Temperatures

Place Temperature

Stations

Nearby Weather Stations

Station Location Temp. Windchill Dew Point Humidity Wind Precip. Elev Updated Type
                   

Watches & Warnings

There are currently no watches in effect.